createdAt,value
2019-05-22T00:05:58.691Z,15.33
2019-05-22T00:16:01.705Z,15.27
2019-05-22T00:26:02.920Z,15.15
2019-05-22T00:36:06.089Z,15.24
2019-05-22T00:46:09.219Z,15.25
2019-05-22T00:56:13.036Z,15.32
2019-05-22T01:06:15.227Z,15.36
2019-05-22T01:16:18.156Z,15.22
2019-05-22T01:26:23.415Z,15.09
2019-05-22T01:36:29.603Z,15.07
2019-05-22T01:46:33.651Z,15.22
2019-05-22T01:56:35.173Z,15.27
2019-05-22T02:06:37.198Z,15.40
2019-05-22T02:16:55.564Z,15.36
2019-05-22T02:26:45.902Z,15.25
2019-05-22T02:36:47.958Z,15.23
2019-05-22T02:46:50.355Z,15.18
2019-05-22T02:56:52.092Z,15.21
2019-05-22T03:06:54.562Z,15.18
2019-05-22T03:17:01.966Z,15.09
2019-05-22T03:27:05.289Z,14.88
2019-05-22T03:37:06.461Z,15.05
2019-05-22T03:47:08.711Z,15.04
2019-05-22T03:57:10.638Z,15.08
2019-05-22T04:07:13.595Z,15.13
2019-05-22T04:17:15.447Z,15.51
2019-05-22T04:27:17.718Z,15.53
2019-05-22T04:37:19.431Z,15.59
2019-05-22T04:47:21.263Z,15.70
2019-05-22T04:57:22.381Z,15.60
2019-05-22T05:07:25.237Z,15.72
2019-05-22T05:17:27.200Z,15.56
2019-05-22T05:27:28.536Z,15.58
2019-05-22T05:37:30.035Z,15.72
2019-05-22T05:47:31.623Z,15.91
2019-05-22T05:57:40.146Z,15.94
2019-05-22T06:07:41.566Z,16.02
2019-05-22T06:17:57.863Z,16.16
2019-05-22T06:28:00.907Z,16.15
2019-05-22T06:38:23.822Z,16.31
2019-05-22T06:48:25.449Z,16.34
2019-05-22T06:58:27.153Z,17.02
2019-05-22T07:08:29.105Z,17.44
2019-05-22T07:18:31.334Z,17.42
2019-05-22T07:28:32.922Z,17.13
2019-05-22T07:38:34.552Z,16.87
2019-05-22T07:48:36.304Z,16.62
2019-05-22T07:58:38.359Z,16.65
2019-05-22T08:08:41.922Z,17.19
2019-05-22T08:18:43.099Z,16.88
2019-05-22T08:28:44.967Z,16.85
2019-05-22T08:38:46.231Z,17.23
2019-05-22T08:48:49.501Z,17.58
2019-05-22T08:58:51.435Z,17.47
2019-05-22T09:08:52.635Z,16.87
2019-05-22T09:18:55.211Z,17.92
2019-05-22T09:28:56.691Z,17.92
2019-05-22T09:38:58.042Z,18.18
2019-05-22T09:49:01.253Z,18.47
2019-05-22T09:59:03.003Z,18.43
2019-05-22T10:09:06.866Z,18.45
2019-05-22T10:19:09.105Z,18.84
2019-05-22T10:29:11.253Z,19.18
2019-05-22T10:39:14.795Z,18.96
2019-05-22T10:49:16.259Z,19.15
2019-05-22T10:59:18.506Z,19.45
2019-05-22T11:09:19.853Z,19.63
2019-05-22T11:19:21.478Z,19.97
2019-05-22T11:29:22.830Z,20.78
2019-05-22T11:39:38.481Z,19.68
2019-05-22T11:49:28.869Z,21.32
2019-05-22T11:59:31.859Z,21.63
2019-05-22T12:09:33.150Z,20.28
2019-05-22T12:19:34.486Z,19.70
2019-05-22T12:29:36.180Z,18.82
2019-05-22T12:39:37.548Z,18.66
2019-05-22T12:49:39.276Z,18.24
2019-05-22T12:59:42.420Z,18.45
2019-05-22T13:09:44.335Z,18.45
2019-05-22T13:19:46.942Z,19.90
2019-05-22T13:29:49.500Z,21.33
2019-05-22T13:39:51.037Z,21.92
2019-05-22T13:49:53.788Z,21.88
2019-05-22T13:59:55.115Z,22.98
2019-05-22T14:09:56.402Z,22.51
2019-05-22T14:19:58.404Z,21.39
2019-05-22T14:30:00.010Z,20.10
2019-05-22T14:40:01.400Z,19.29
2019-05-22T14:50:05.730Z,19.56
2019-05-22T15:00:09.930Z,19.82
2019-05-22T15:10:16.860Z,19.65
2019-05-22T15:20:23.567Z,18.91
2019-05-22T15:30:25.547Z,18.33
2019-05-22T15:40:27.674Z,19.33
2019-05-22T15:50:32.991Z,20.49
2019-05-22T16:10:49.411Z,20.32
2019-05-22T16:20:53.951Z,20.13
2019-05-22T16:31:10.932Z,20.09
2019-05-22T16:41:07.141Z,20.84
2019-05-22T16:51:09.996Z,21.12
2019-05-22T17:01:11.098Z,21.00
2019-05-22T17:11:12.767Z,20.93
2019-05-22T17:21:15.271Z,20.63
2019-05-22T17:31:16.770Z,19.72
2019-05-22T17:41:19.920Z,19.13
2019-05-22T17:51:22.464Z,18.58
2019-05-22T18:01:23.801Z,18.11
2019-05-22T18:11:25.293Z,17.86
2019-05-22T18:21:27.324Z,17.46
2019-05-22T18:31:28.777Z,17.19
2019-05-22T18:41:30.151Z,16.82
2019-05-22T18:51:31.275Z,16.46
2019-05-22T19:01:32.686Z,16.10
2019-05-22T19:11:35.912Z,15.76
2019-05-22T19:21:37.274Z,15.51
2019-05-22T19:31:39.048Z,15.24
2019-05-22T19:41:40.419Z,15.02
2019-05-22T19:51:42.527Z,14.82
2019-05-22T20:01:43.685Z,14.60
2019-05-22T20:11:45.413Z,14.45
2019-05-22T20:21:47.271Z,14.33
2019-05-22T20:31:49.036Z,14.09
2019-05-22T20:41:51.340Z,13.89
2019-05-22T20:51:54.117Z,13.73
2019-05-22T21:01:55.455Z,13.65
2019-05-22T21:11:56.687Z,13.54
2019-05-22T21:22:00.084Z,13.34
2019-05-22T21:32:02.308Z,13.16
2019-05-22T21:42:16.278Z,13.08
2019-05-22T21:52:17.537Z,12.99
2019-05-22T22:02:24.323Z,12.77
2019-05-22T22:12:26.391Z,12.72
2019-05-22T22:22:28.798Z,12.57
2019-05-22T22:32:32.252Z,12.45
2019-05-22T22:42:37.264Z,12.34
2019-05-22T22:52:41.761Z,12.23
2019-05-22T23:02:46.197Z,12.02
2019-05-22T23:12:47.328Z,11.90
2019-05-22T23:22:48.775Z,11.84
2019-05-22T23:43:09.558Z,11.65
2019-05-22T23:53:11.712Z,11.96
